Time;durP1;ratioP1;P1;durP2;ratioP2;P2;SDS_P1;SDS_P2;PMS_P1;PMS_P2;Temp;Humidity;BMP_temperature;BMP_pressure;BME280_temperature;BME280_humidity;BME280_pressure;Samples;Min_cycle;Max_cycle;Signal;HPM_P1;HPM_P2
2022/06/27 00:01:45;;;;;;;4.45;4.05;;;;;;;25.55;51.24;101279.56;5026915;28;20422;-56
2022/06/27 00:04:12;;;;;;;4.88;3.70;;;;;;;25.54;51.43;101275.22;5027072;28;20527;-57
2022/06/27 00:06:39;;;;;;;4.05;3.72;;;;;;;25.49;51.16;101275.97;5026157;28;20434;-58
2022/06/27 00:09:06;;;;;;;4.95;3.70;;;;;;;25.36;51.25;101289.97;5027077;28;20434;-56
2022/06/27 00:11:35;;;;;;;4.10;3.70;;;;;;;25.33;51.23;101285.03;5026395;28;20509;-55
2022/06/27 00:14:02;;;;;;;5.78;3.63;;;;;;;25.31;51.41;101292.63;5027025;28;20418;-57
2022/06/27 00:16:29;;;;;;;6.15;3.80;;;;;;;25.24;51.18;101289.25;5026371;28;20630;-57
2022/06/27 00:18:56;;;;;;;4.05;3.47;;;;;;;25.24;51.43;101290.09;5027375;28;20437;-56
2022/06/27 00:21:22;;;;;;;6.18;3.70;;;;;;;25.24;51.40;101286.53;5019517;28;20509;-57
2022/06/27 00:23:49;;;;;;;3.83;3.33;;;;;;;25.24;51.29;101290.09;5020028;28;20422;-58
2022/06/27 00:26:16;;;;;;;3.60;3.30;;;;;;;25.23;51.48;101293.88;5027364;28;20411;-56
2022/06/27 00:28:45;;;;;;;3.85;3.17;;;;;;;25.22;51.32;101294.13;5026334;28;21055;-57
2022/06/27 00:31:12;;;;;;;3.80;3.50;;;;;;;25.23;51.19;101295.72;5026301;28;20569;-56
2022/06/27 00:33:39;;;;;;;4.88;3.60;;;;;;;25.17;51.32;101292.16;5027219;28;20458;-56
2022/06/27 00:36:06;;;;;;;3.58;3.28;;;;;;;25.15;51.37;101288.88;5024258;28;20516;-57
2022/06/27 00:38:33;;;;;;;3.25;3.05;;;;;;;25.14;51.39;101290.78;5029455;28;20418;-55
2022/06/27 00:41:00;;;;;;;4.60;3.30;;;;;;;25.13;51.32;101301.88;5029501;28;20501;-56
2022/06/27 00:43:27;;;;;;;4.65;3.40;;;;;;;25.11;51.31;101306.75;5029599;28;20502;-58
2022/06/27 00:45:55;;;;;;;4.83;3.20;;;;;;;25.08;51.44;101308.03;5029031;28;20426;-57
2022/06/27 00:48:22;;;;;;;4.40;3.30;;;;;;;25.07;51.25;101311.03;5029479;28;20515;-56
2022/06/27 00:50:49;;;;;;;4.05;3.20;;;;;;;25.05;51.29;101311.28;5029179;28;20422;-56
2022/06/27 00:53:17;;;;;;;3.67;3.30;;;;;;;25.01;51.41;101307.41;5029378;28;20497;-56
2022/06/27 00:55:45;;;;;;;4.25;3.85;;;;;;;24.97;51.56;101299.00;5028921;28;20442;-56
2022/06/27 00:58:12;;;;;;;6.10;3.70;;;;;;;24.94;51.52;101294.06;5027851;28;20426;-56
2022/06/27 01:00:39;;;;;;;4.63;3.60;;;;;;;24.93;51.52;101297.03;5029020;28;21175;-58
2022/06/27 01:03:08;;;;;;;5.07;3.60;;;;;;;24.90;51.61;101284.81;5028439;28;21090;-56
2022/06/27 01:05:35;;;;;;;3.88;3.53;;;;;;;24.88;51.52;101286.91;5029305;28;20541;-56
2022/06/27 01:08:02;;;;;;;4.50;3.60;;;;;;;24.85;51.67;101290.16;5028965;28;20430;-56
2022/06/27 01:10:29;;;;;;;4.40;4.00;;;;;;;24.84;51.93;101293.94;5029262;28;20426;-56
2022/06/27 01:12:57;;;;;;;4.25;3.70;;;;;;;24.82;51.83;101282.50;5025934;28;20418;-57
2022/06/27 01:15:25;;;;;;;4.10;3.67;;;;;;;24.81;51.96;101283.56;5028966;28;20928;-57
2022/06/27 01:17:53;;;;;;;4.00;3.63;;;;;;;24.76;52.06;101284.34;5024727;28;20427;-56
2022/06/27 01:20:21;;;;;;;4.68;3.70;;;;;;;24.75;52.08;101290.81;5025980;28;20513;-56
2022/06/27 01:22:49;;;;;;;6.43;3.50;;;;;;;24.76;51.74;101292.47;5023319;28;20422;-55
2022/06/27 01:25:20;;;;;;;4.13;3.70;;;;;;;24.75;51.69;101290.00;5025734;28;20497;-55
2022/06/27 01:27:47;;;;;;;5.28;3.88;;;;;;;24.74;51.84;101291.06;5023677;28;20509;-57
2022/06/27 01:30:15;;;;;;;5.68;3.58;;;;;;;24.73;52.01;101301.09;5026923;28;20430;-56
2022/06/27 01:32:42;;;;;;;6.03;3.80;;;;;;;24.70;51.93;101289.94;5023996;28;20420;-56
2022/06/27 01:35:10;;;;;;;4.37;3.90;;;;;;;24.67;51.93;101285.84;5023163;28;21016;-56
2022/06/27 01:37:37;;;;;;;5.00;3.75;;;;;;;24.65;51.93;101282.56;5020986;28;20497;-56
2022/06/27 01:40:06;;;;;;;4.95;3.83;;;;;;;24.60;52.09;101290.63;5026123;28;20427;-57
2022/06/27 01:42:33;;;;;;;7.15;3.90;;;;;;;24.61;52.14;101294.97;5025213;28;20493;-56
2022/06/27 01:45:01;;;;;;;5.97;4.65;;;;;;;24.61;52.08;101292.25;5024319;28;20493;-55
2022/06/27 01:47:29;;;;;;;4.47;4.07;;;;;;;24.61;51.85;101295.81;5023811;28;20799;-56
2022/06/27 01:49:56;;;;;;;5.07;3.90;;;;;;;24.61;51.91;101295.81;5022473;28;20468;-58
2022/06/27 01:52:24;;;;;;;5.00;3.80;;;;;;;24.62;52.21;101293.91;5020353;28;20940;-57
2022/06/27 01:54:51;;;;;;;4.20;3.65;;;;;;;24.58;52.13;101290.88;5022698;28;21577;-57
2022/06/27 01:58:34;;;;;;;5.38;3.70;;;;;;;24.58;52.11;101292.78;5052296;28;20459;-55
2022/06/27 02:01:01;;;;;;;6.10;4.15;;;;;;;24.58;52.21;101287.34;5039052;28;20417;-56
2022/06/27 02:03:28;;;;;;;6.07;4.18;;;;;;;24.56;52.11;101294.88;5042010;28;20680;-57
2022/06/27 02:05:57;;;;;;;5.30;3.97;;;;;;;24.55;52.04;101293.25;5042034;28;20953;-58
2022/06/27 02:08:25;;;;;;;4.00;3.60;;;;;;;24.53;52.24;101301.66;5040061;28;20429;-55
2022/06/27 02:10:52;;;;;;;5.18;4.00;;;;;;;24.52;52.19;101308.09;5037991;28;20422;-56
2022/06/27 02:13:19;;;;;;;4.97;4.30;;;;;;;24.52;52.16;101307.28;5038423;28;20509;-56
2022/06/27 02:16:08;;;;;;;5.47;4.18;;;;;;;24.48;52.12;101309.66;5041681;28;20421;-55
2022/06/27 02:18:36;;;;;;;4.43;3.97;;;;;;;24.45;52.29;101315.56;5039959;28;20512;-56
2022/06/27 02:21:03;;;;;;;4.25;3.70;;;;;;;24.47;52.10;101312.63;5038222;28;20432;-57
2022/06/27 02:23:31;;;;;;;5.20;3.55;;;;;;;24.46;52.18;101316.41;5037398;28;20799;-57
2022/06/27 02:25:58;;;;;;;4.93;3.63;;;;;;;24.45;52.01;101321.00;5038777;28;20641;-56
2022/06/27 02:28:27;;;;;;;5.65;3.85;;;;;;;24.43;51.96;101318.56;5039065;28;20493;-56
2022/06/27 02:30:54;;;;;;;8.52;3.72;;;;;;;24.40;52.20;101315.53;5038432;28;20501;-57
2022/06/27 02:33:23;;;;;;;3.97;3.58;;;;;;;24.39;52.11;101322.81;5038900;28;20987;-57
2022/06/27 02:35:52;;;;;;;3.88;3.50;;;;;;;24.38;52.18;101323.91;5039698;28;21030;-56
2022/06/27 02:38:21;;;;;;;5.23;3.53;;;;;;;24.37;52.15;101321.44;5039385;28;20461;-55
2022/06/27 02:40:48;;;;;;;4.63;3.80;;;;;;;24.34;52.21;101319.19;5038696;28;20974;-57
2022/06/27 02:43:17;;;;;;;5.15;3.70;;;;;;;24.33;52.20;101321.09;5038763;28;20813;-59
2022/06/27 02:45:46;;;;;;;6.20;3.90;;;;;;;24.32;52.03;101319.44;5037758;28;20504;-58
2022/06/27 02:48:18;;;;;;;4.25;3.75;;;;;;;24.31;52.09;101322.41;5041414;28;20516;-57
2022/06/27 02:50:51;;;;;;;5.60;4.28;;;;;;;24.28;52.04;101326.44;5040781;28;20428;-57
2022/06/27 02:53:25;;;;;;;5.53;4.18;;;;;;;24.27;52.04;101329.38;5038259;28;20426;-59
2022/06/27 02:55:55;;;;;;;5.47;4.32;;;;;;;24.24;51.93;101336.94;5037436;28;20433;-56
2022/06/27 02:58:33;;;;;;;5.38;4.43;;;;;;;24.25;52.02;101348.59;5054336;28;20592;-58
2022/06/27 03:01:03;;;;;;;7.50;4.38;;;;;;;24.23;52.07;101353.44;5057613;28;20422;-58
2022/06/27 03:03:33;;;;;;;4.30;3.90;;;;;;;24.23;52.07;101345.31;5059077;28;20513;-56
2022/06/27 03:06:03;;;;;;;4.97;4.03;;;;;;;24.24;52.30;101352.38;5057115;28;20422;-56
2022/06/27 03:08:38;;;;;;;5.97;4.10;;;;;;;24.24;52.21;101347.78;5052017;28;20413;-55
2022/06/27 03:11:06;;;;;;;7.35;4.80;;;;;;;24.24;52.36;101355.91;5044950;28;21027;-58
2022/06/27 03:13:33;;;;;;;5.45;3.55;;;;;;;24.23;52.18;101358.84;5046774;28;20416;-55
2022/06/27 03:15:59;;;;;;;6.07;4.20;;;;;;;24.26;52.18;101366.50;5045231;28;20511;-57
2022/06/27 03:18:26;;;;;;;6.38;3.67;;;;;;;24.29;52.24;101363.31;5044228;28;20440;-57
2022/06/27 03:20:53;;;;;;;5.07;3.88;;;;;;;24.21;52.32;101358.28;5045037;28;20890;-56
2022/06/27 03:23:22;;;;;;;4.82;3.83;;;;;;;24.20;52.70;101357.47;5047162;28;20420;-57
2022/06/27 03:25:49;;;;;;;4.05;3.30;;;;;;;24.18;52.40;101362.31;5044033;28;20926;-57
2022/06/27 03:28:16;;;;;;;4.70;3.78;;;;;;;24.18;52.59;101367.75;5047676;28;20487;-55
2022/06/27 03:30:43;;;;;;;4.35;3.95;;;;;;;24.22;52.42;101360.75;5044367;28;21012;-57
2022/06/27 03:33:11;;;;;;;5.75;4.00;;;;;;;24.29;52.29;101363.31;5047748;28;20505;-53
2022/06/27 03:35:38;;;;;;;4.50;4.10;;;;;;;24.35;52.39;101358.78;5045267;28;20843;-55
2022/06/27 03:38:05;;;;;;;4.72;4.10;;;;;;;24.40;52.36;101350.75;5045869;28;20443;-57
2022/06/27 03:40:34;;;;;;;4.10;3.80;;;;;;;24.46;52.37;101349.75;5044762;28;20566;-56
2022/06/27 03:43:01;;;;;;;4.23;3.83;;;;;;;24.53;52.02;101355.84;5045268;28;20922;-56
2022/06/27 03:45:28;;;;;;;5.30;3.90;;;;;;;24.61;52.28;101354.59;5046127;28;20511;-57
2022/06/27 03:47:58;;;;;;;5.45;4.07;;;;;;;24.66;52.00;101362.00;5044592;28;20504;-55
2022/06/27 03:50:25;;;;;;;5.20;4.15;;;;;;;24.73;51.79;101360.75;5045205;28;20421;-57
2022/06/27 03:52:54;;;;;;;6.72;4.00;;;;;;;24.79;51.41;101375.19;5044180;28;20933;-58
2022/06/27 03:55:22;;;;;;;4.63;4.10;;;;;;;24.87;51.61;101366.66;5044470;28;20922;-53
2022/06/27 03:57:53;;;;;;;6.30;4.30;;;;;;;24.99;51.34;101371.94;5045455;28;20436;-59
2022/06/27 04:00:24;;;;;;;5.13;4.20;;;;;;;25.09;51.13;101374.81;5040888;28;20499;-56
2022/06/27 04:02:51;;;;;;;6.18;4.05;;;;;;;25.18;50.84;101376.00;5043375;28;20417;-56
2022/06/27 04:05:18;;;;;;;6.50;4.22;;;;;;;25.29;50.56;101374.28;5044032;28;20507;-58
2022/06/27 04:07:46;;;;;;;7.50;4.53;;;;;;;25.35;50.08;101367.00;5045512;28;20810;-55
2022/06/27 04:10:14;;;;;;;4.72;3.80;;;;;;;25.43;50.17;101363.88;5045133;28;21165;-55
2022/06/27 04:12:42;;;;;;;4.63;4.18;;;;;;;25.52;49.97;101372.38;5042287;28;21058;-57
2022/06/27 04:15:12;;;;;;;4.57;4.17;;;;;;;25.59;50.02;101364.03;5047837;28;20417;-57
2022/06/27 04:17:39;;;;;;;5.95;4.50;;;;;;;25.68;49.75;101370.66;5050301;28;20428;-56
2022/06/27 04:20:07;;;;;;;6.95;5.05;;;;;;;25.82;49.40;101368.34;5048157;28;20416;-58
2022/06/27 04:22:34;;;;;;;6.28;5.50;;;;;;;25.92;49.36;101373.88;5049533;28;20416;-55
2022/06/27 04:25:02;;;;;;;7.30;5.57;;;;;;;26.06;48.96;101371.59;5051851;28;20838;-56
2022/06/27 04:27:29;;;;;;;5.13;4.60;;;;;;;26.19;48.41;101367.63;5049353;28;20428;-54
2022/06/27 04:29:57;;;;;;;7.55;4.10;;;;;;;26.31;48.04;101366.38;5047905;28;20507;-55
2022/06/27 04:32:26;;;;;;;4.97;4.30;;;;;;;26.42;47.81;101372.72;5049032;28;20512;-57
2022/06/27 04:34:53;;;;;;;5.75;4.40;;;;;;;26.52;47.66;101371.97;5049466;28;20412;-54
2022/06/27 04:37:20;;;;;;;4.82;4.22;;;;;;;26.63;47.04;101368.28;5051218;28;20543;-52
2022/06/27 04:39:47;;;;;;;5.23;4.30;;;;;;;26.76;46.74;101371.59;5050947;28;20420;-54
2022/06/27 04:42:15;;;;;;;5.10;4.15;;;;;;;26.87;46.59;101371.41;5050962;28;20416;-56
2022/06/27 04:44:43;;;;;;;4.78;3.95;;;;;;;27.00;46.73;101367.38;5048408;28;21441;-54
2022/06/27 04:47:13;;;;;;;5.07;3.92;;;;;;;27.08;46.39;101369.63;5046697;28;20420;-55
2022/06/27 04:49:43;;;;;;;5.65;3.55;;;;;;;27.18;46.36;101377.00;5049800;28;20942;-53
2022/06/27 04:52:10;;;;;;;3.83;3.47;;;;;;;27.32;46.45;101371.94;5050634;28;20454;-54
2022/06/27 04:54:38;;;;;;;6.57;3.60;;;;;;;27.44;46.38;101369.78;5049989;28;20417;-57
2022/06/27 04:57:05;;;;;;;5.97;3.92;;;;;;;27.54;46.12;101371.72;5051394;28;20944;-58
2022/06/27 04:59:33;;;;;;;5.90;4.30;;;;;;;27.66;45.72;101376.94;5051962;28;20502;-55
2022/06/27 05:02:00;;;;;;;5.60;4.10;;;;;;;27.76;45.87;101370.69;5058838;28;20419;-55
2022/06/27 05:04:29;;;;;;;4.45;3.83;;;;;;;27.82;45.22;101375.88;5044287;28;20923;-57
2022/06/27 05:06:58;;;;;;;6.03;3.90;;;;;;;27.99;45.20;101366.66;5049396;28;20794;-58
2022/06/27 05:09:26;;;;;;;4.63;3.95;;;;;;;28.08;44.57;101373.19;5038001;28;20530;-56
2022/06/27 05:11:54;;;;;;;5.88;4.38;;;;;;;28.14;44.20;101371.28;5050240;28;21411;-57
2022/06/27 05:14:21;;;;;;;6.63;4.50;;;;;;;28.17;44.22;101377.00;5050006;28;20836;-57
2022/06/27 05:16:49;;;;;;;5.63;4.47;;;;;;;28.27;44.38;101380.84;5042698;28;20418;-56
2022/06/27 05:19:16;;;;;;;7.55;4.80;;;;;;;28.33;44.21;101380.56;5050698;28;20914;-56
2022/06/27 05:21:43;;;;;;;5.45;4.30;;;;;;;28.47;43.84;101380.84;5048573;28;20483;-56
2022/06/27 05:24:12;;;;;;;15.23;5.22;;;;;;;28.54;43.96;101384.13;5054398;28;20934;-57
2022/06/27 05:26:39;;;;;;;7.90;5.40;;;;;;;28.66;43.52;101388.47;5037823;28;20501;-57
2022/06/27 05:29:06;;;;;;;6.60;4.90;;;;;;;28.66;43.20;101386.56;5053474;28;20509;-56
2022/06/27 05:31:33;;;;;;;6.60;4.80;;;;;;;28.74;43.60;101385.19;5054970;28;20502;-56
2022/06/27 05:34:00;;;;;;;6.30;5.53;;;;;;;28.71;43.40;101383.81;5056516;28;20425;-57
2022/06/27 05:36:27;;;;;;;6.63;4.90;;;;;;;28.85;43.47;101392.25;5056392;28;20930;-57
2022/06/27 05:40:51;;;;;;;5.95;4.30;;;;;;;29.00;42.85;101385.94;5114797;27;20401;-59
2022/06/27 05:43:18;;;;;;;9.40;5.40;;;;;;;28.92;42.91;101376.41;5111220;28;20505;-57
2022/06/27 05:45:45;;;;;;;4.75;4.15;;;;;;;29.06;43.02;101384.00;5127085;28;20942;-57
2022/06/27 05:48:12;;;;;;;6.40;4.50;;;;;;;29.14;42.86;101388.91;5126699;28;20490;-59
2022/06/27 05:50:39;;;;;;;7.95;4.20;;;;;;;29.40;42.41;101386.88;5127225;28;20418;-58
2022/06/27 05:53:06;;;;;;;6.83;4.53;;;;;;;29.58;42.17;101390.09;5125425;28;20411;-58
2022/06/27 05:55:34;;;;;;;5.38;4.18;;;;;;;29.82;41.40;101387.50;5124165;28;20489;-58
2022/06/27 05:58:03;;;;;;;4.88;4.00;;;;;;;30.03;41.04;101386.25;5125245;28;20419;-60
2022/06/27 06:00:30;;;;;;;5.43;4.50;;;;;;;30.21;40.67;101389.41;5123514;28;20422;-57
2022/06/27 06:02:57;;;;;;;6.77;4.03;;;;;;;30.42;40.14;101399.09;5125957;28;20433;-59
2022/06/27 06:05:25;;;;;;;4.72;4.25;;;;;;;30.60;39.95;101389.34;5125341;28;20497;-58
2022/06/27 06:07:53;;;;;;;5.95;3.70;;;;;;;30.92;39.69;101392.59;5124908;28;20497;-56
2022/06/27 06:10:21;;;;;;;5.30;3.83;;;;;;;31.23;38.74;101393.88;5125999;28;20793;-58
2022/06/27 06:12:49;;;;;;;5.90;3.97;;;;;;;31.60;38.17;101395.06;5125706;28;20431;-56
2022/06/27 06:15:17;;;;;;;5.10;4.60;;;;;;;31.97;37.20;101393.41;5125012;28;20531;-59
2022/06/27 06:17:44;;;;;;;4.95;3.70;;;;;;;32.41;36.78;101396.81;5117609;28;20422;-58
2022/06/27 06:20:12;;;;;;;6.00;4.50;;;;;;;32.85;35.94;101401.00;5109656;28;20432;-59
2022/06/27 06:22:40;;;;;;;7.35;4.30;;;;;;;33.28;34.96;101408.16;5117703;28;20475;-58
2022/06/27 06:25:08;;;;;;;5.57;4.30;;;;;;;33.65;34.36;101400.72;5124923;28;20433;-57
2022/06/27 06:27:35;;;;;;;5.82;4.22;;;;;;;34.05;33.80;101395.41;5118401;28;20415;-58
2022/06/27 06:30:02;;;;;;;4.57;4.15;;;;;;;34.51;32.91;101397.03;5117735;28;20423;-58
2022/06/27 06:32:31;;;;;;;4.00;3.60;;;;;;;34.88;32.53;101394.97;5120064;28;20493;-58
2022/06/27 06:34:58;;;;;;;4.32;3.70;;;;;;;35.40;31.74;101392.34;5125853;28;20411;-59
2022/06/27 06:37:26;;;;;;;7.15;4.25;;;;;;;35.61;31.03;101397.22;5125275;28;20411;-56
2022/06/27 06:39:53;;;;;;;5.20;3.80;;;;;;;36.13;30.49;101399.97;5119185;28;20910;-56
2022/06/27 06:42:20;;;;;;;5.57;3.80;;;;;;;36.52;29.56;101408.38;5125103;28;20415;-56
2022/06/27 06:44:48;;;;;;;6.03;3.50;;;;;;;36.91;29.45;101401.69;5118418;28;20956;-57
2022/06/27 06:47:16;;;;;;;4.85;3.53;;;;;;;37.04;28.88;101404.56;5125559;28;20924;-56
2022/06/27 06:49:46;;;;;;;6.03;3.58;;;;;;;37.15;28.29;101407.75;5112298;28;20417;-56
2022/06/27 06:52:14;;;;;;;5.40;3.63;;;;;;;37.01;28.88;101406.06;5111513;28;20420;-57
2022/06/27 06:54:41;;;;;;;3.83;3.40;;;;;;;37.06;28.65;101407.78;5107188;28;20500;-56
2022/06/27 06:57:09;;;;;;;3.50;3.20;;;;;;;36.98;28.61;101408.66;5103755;28;20426;-56
2022/06/27 06:59:36;;;;;;;6.28;3.50;;;;;;;36.81;28.51;101415.91;5107315;28;20423;-56
2022/06/27 07:02:04;;;;;;;3.92;3.47;;;;;;;36.66;28.59;101410.88;5101992;28;20800;-56
2022/06/27 07:04:31;;;;;;;4.38;3.13;;;;;;;36.27;29.33;101410.84;5104535;28;20416;-57
2022/06/27 07:07:01;;;;;;;4.35;3.20;;;;;;;35.89;29.86;101407.94;5110173;28;20408;-56
2022/06/27 07:09:28;;;;;;;4.18;3.80;;;;;;;35.56;30.39;101411.16;5111369;28;20418;-56
2022/06/27 07:11:55;;;;;;;5.40;3.90;;;;;;;35.35;30.79;101416.50;5105763;28;20506;-56
2022/06/27 07:14:26;;;;;;;6.25;3.70;;;;;;;35.05;31.06;101413.47;5108538;28;20411;-58
2022/06/27 07:16:54;;;;;;;4.63;4.22;;;;;;;34.99;31.05;101412.81;5111517;28;21001;-59
2022/06/27 07:19:21;;;;;;;4.55;3.58;;;;;;;34.80;31.78;101402.03;5108914;28;20476;-58
2022/06/27 07:21:48;;;;;;;3.70;3.40;;;;;;;34.65;32.02;101408.75;5110513;28;20415;-58
2022/06/27 07:24:16;;;;;;;3.83;3.20;;;;;;;34.67;31.69;101416.69;5104786;28;20514;-56
2022/06/27 07:26:43;;;;;;;4.53;3.10;;;;;;;34.59;31.12;101410.03;5111401;28;20490;-59
2022/06/27 07:29:10;;;;;;;5.63;3.08;;;;;;;34.43;31.18;101409.63;5107615;28;20415;-58
2022/06/27 07:31:37;;;;;;;6.00;3.73;;;;;;;34.36;30.87;101405.66;5109453;28;20485;-60
2022/06/27 07:34:07;;;;;;;4.50;3.20;;;;;;;34.37;31.61;101407.31;5109563;28;20407;-57
2022/06/27 07:36:35;;;;;;;5.60;3.30;;;;;;;34.33;32.01;101404.38;5109626;28;20411;-59
2022/06/27 07:39:03;;;;;;;6.88;4.10;;;;;;;34.25;32.06;101403.19;5107734;28;20427;-58
2022/06/27 07:41:32;;;;;;;4.45;3.70;;;;;;;34.17;31.76;101405.84;5095381;28;20417;-58
2022/06/27 07:44:00;;;;;;;5.30;3.65;;;;;;;34.11;32.27;101401.63;5103290;28;20443;-58
2022/06/27 07:46:27;;;;;;;4.18;3.60;;;;;;;33.87;33.03;101405.47;5109627;28;20415;-59
2022/06/27 07:48:54;;;;;;;4.53;4.10;;;;;;;33.42;34.47;101416.34;5111333;28;20407;-58
2022/06/27 07:51:21;;;;;;;4.75;4.03;;;;;;;32.86;35.60;101421.03;5096990;28;20493;-58
2022/06/27 07:53:51;;;;;;;4.35;4.00;;;;;;;32.49;36.04;101422.78;5111505;28;20495;-58
2022/06/27 07:56:20;;;;;;;5.97;4.55;;;;;;;32.20;36.89;101418.34;5111171;28;20495;-58
2022/06/27 07:58:49;;;;;;;6.63;5.40;;;;;;;31.58;38.32;101413.72;5107038;28;20911;-58
2022/06/27 08:01:19;;;;;;;6.35;4.80;;;;;;;31.64;38.30;101417.22;5105336;28;20439;-59
2022/06/27 08:03:48;;;;;;;6.45;4.88;;;;;;;31.38;38.26;101423.00;5089574;28;20417;-59
2022/06/27 08:06:17;;;;;;;6.50;4.90;;;;;;;30.99;39.06;101425.94;5090656;28;20409;-58
2022/06/27 08:08:47;;;;;;;5.28;4.15;;;;;;;30.88;38.81;101420.56;5105833;28;20982;-58
2022/06/27 08:11:15;;;;;;;4.47;4.07;;;;;;;30.77;38.76;101420.94;5103101;28;20921;-58
2022/06/27 08:13:44;;;;;;;4.72;4.25;;;;;;;30.50;39.11;101416.81;5090425;28;20499;-58
2022/06/27 08:16:14;;;;;;;4.85;4.45;;;;;;;30.29;40.09;101416.97;5090859;28;20408;-58
2022/06/27 08:18:43;;;;;;;6.68;4.80;;;;;;;30.17;40.13;101412.97;5104130;28;20498;-56
2022/06/27 08:21:10;;;;;;;5.60;4.95;;;;;;;30.20;40.58;101420.59;5110714;28;20459;-58
2022/06/27 08:23:38;;;;;;;4.60;4.20;;;;;;;30.20;40.08;101420.59;5098790;28;20409;-58
2022/06/27 08:26:07;;;;;;;4.93;4.40;;;;;;;30.09;40.55;101419.88;5090014;28;20910;-58
2022/06/27 08:28:35;;;;;;;4.80;4.20;;;;;;;30.16;40.30;101423.09;5100750;28;20533;-57
2022/06/27 08:31:02;;;;;;;5.78;4.40;;;;;;;30.24;40.31;101432.59;5107760;28;20492;-60
2022/06/27 08:33:32;;;;;;;5.63;5.00;;;;;;;30.13;40.28;101423.66;5100392;28;20413;-58
2022/06/27 08:35:59;;;;;;;4.82;4.43;;;;;;;30.13;40.60;101414.66;5107779;28;20789;-58
2022/06/27 08:38:26;;;;;;;6.28;4.30;;;;;;;30.02;40.53;101430.31;5095393;28;20923;-57
2022/06/27 08:40:55;;;;;;;6.38;4.57;;;;;;;29.90;40.79;101414.25;5104585;28;20447;-58
2022/06/27 08:43:22;;;;;;;6.95;4.30;;;;;;;29.76;41.34;101418.72;5107075;27;20495;-58
2022/06/27 08:45:51;;;;;;;5.38;4.63;;;;;;;29.63;41.45;101420.94;5103507;28;20415;-60
2022/06/27 08:48:19;;;;;;;6.63;4.60;;;;;;;29.48;41.66;101419.09;5098992;28;20781;-58
2022/06/27 08:50:50;;;;;;;4.63;4.18;;;;;;;29.46;41.42;101415.81;5104203;28;20431;-57
2022/06/27 08:53:17;;;;;;;5.10;3.95;;;;;;;29.58;40.90;101414.66;5105529;28;20505;-57
2022/06/27 08:55:46;;;;;;;4.22;3.83;;;;;;;29.71;40.63;101411.31;5107975;28;20498;-57
2022/06/27 08:58:14;;;;;;;4.97;4.45;;;;;;;29.96;40.77;101404.91;5110009;27;20437;-58
2022/06/27 09:00:45;;;;;;;4.70;4.10;;;;;;;29.98;39.86;101412.81;5095491;28;20506;-58
2022/06/27 09:03:13;;;;;;;4.30;3.90;;;;;;;29.97;39.69;101406.53;5097806;28;20462;-57
2022/06/27 09:05:40;;;;;;;5.03;4.43;;;;;;;29.96;39.88;101415.03;5103887;28;20504;-58
2022/06/27 09:08:10;;;;;;;5.97;4.03;;;;;;;29.93;39.77;101413.69;5100818;28;21089;-58
2022/06/27 09:10:40;;;;;;;4.00;3.63;;;;;;;29.98;39.42;101405.47;5109560;28;20407;-57
2022/06/27 09:13:10;;;;;;;4.05;3.65;;;;;;;30.16;38.66;101414.06;5106731;28;20490;-58
2022/06/27 09:15:55;;;;;;;4.18;3.65;;;;;;;30.27;38.33;101405.50;5106951;28;20403;-58
2022/06/27 09:18:25;;;;;;;5.28;4.22;;;;;;;30.38;38.68;101394.47;5089285;28;20508;-58
2022/06/27 09:20:55;;;;;;;5.90;4.33;;;;;;;30.62;38.22;101391.81;5089013;28;20788;-58
2022/06/27 09:23:40;;;;;;;4.93;3.90;;;;;;;30.76;37.75;101392.75;5099705;28;20979;-58
2022/06/27 09:26:10;;;;;;;4.55;3.35;;;;;;;30.87;36.47;101390.72;5105052;28;20410;-56
2022/06/27 09:28:50;;;;;;;6.03;4.03;;;;;;;30.71;37.19;101386.53;5109765;28;20411;-57
2022/06/27 09:31:35;;;;;;;5.45;3.80;;;;;;;30.81;37.81;101387.22;5100777;28;20435;-58
2022/06/27 09:34:12;;;;;;;4.55;4.07;;;;;;;30.92;37.60;101384.38;5104418;28;20781;-57
2022/06/27 09:36:42;;;;;;;6.05;4.03;;;;;;;30.85;38.37;101379.25;5096679;28;20407;-58
2022/06/27 09:39:19;;;;;;;4.43;3.88;;;;;;;30.88;38.88;101384.13;5104174;28;20767;-57
2022/06/27 09:41:54;;;;;;;6.43;4.35;;;;;;;30.78;38.93;101376.06;5114813;28;20429;-59
2022/06/27 09:44:25;;;;;;;4.05;3.63;;;;;;;30.67;38.93;101376.16;5117826;28;20424;-57
2022/06/27 09:47:03;;;;;;;4.50;4.10;;;;;;;30.57;39.69;101372.69;5099747;28;20504;-58
2022/06/27 09:49:33;;;;;;;5.18;4.60;;;;;;;30.55;39.40;101366.69;5104189;28;20403;-58
2022/06/27 09:52:05;;;;;;;5.38;4.55;;;;;;;30.64;39.15;101362.22;5100045;28;20435;-57
2022/06/27 09:54:34;;;;;;;5.33;4.93;;;;;;;30.57;39.36;101361.75;5105439;28;20499;-58
2022/06/27 09:57:03;;;;;;;5.68;4.82;;;;;;;30.54;39.68;101365.06;5110361;28;20413;-58
2022/06/27 09:59:30;;;;;;;5.45;4.78;;;;;;;30.41;39.70;101355.63;5099274;28;20496;-58
2022/06/27 10:01:57;;;;;;;6.40;4.80;;;;;;;30.36;39.73;101359.22;5110299;28;20985;-57
2022/06/27 10:04:26;;;;;;;5.45;4.60;;;;;;;30.49;39.34;101361.28;5101257;28;20467;-58
2022/06/27 10:06:54;;;;;;;6.00;4.97;;;;;;;30.40;39.37;101359.47;5102914;28;20835;-57
2022/06/27 10:09:24;;;;;;;6.80;5.10;;;;;;;30.27;39.48;101369.09;5088701;28;20413;-58
2022/06/27 10:12:26;;;;;;;7.40;5.18;;;;;;;30.27;39.58;101369.94;5087841;28;20412;-58
2022/06/27 10:15:24;;;;;;;6.97;5.60;;;;;;;30.56;39.42;101358.22;5089119;28;20480;-58
2022/06/27 10:17:56;;;;;;;8.10;5.70;;;;;;;30.68;39.59;101360.53;5088649;28;20986;-58
2022/06/27 10:20:47;;;;;;;6.95;5.63;;;;;;;30.68;39.34;101361.38;5088625;28;20436;-58
2022/06/27 10:23:28;;;;;;;6.38;5.47;;;;;;;30.78;38.68;101349.47;5084958;28;20424;-58
2022/06/27 10:25:56;;;;;;;5.80;5.23;;;;;;;30.84;38.71;101351.03;5092631;28;20456;-58
2022/06/27 10:28:25;;;;;;;5.63;5.13;;;;;;;30.73;38.80;101348.72;5103455;28;20405;-57
2022/06/27 10:30:54;;;;;;;6.20;5.60;;;;;;;30.82;39.26;101350.53;5106680;28;20410;-57
2022/06/27 10:33:40;;;;;;;5.97;5.40;;;;;;;31.04;38.98;101346.47;5092550;28;20861;-59
2022/06/27 10:36:16;;;;;;;6.07;5.47;;;;;;;30.88;39.22;101338.44;5106893;28;20501;-57
2022/06/27 10:38:50;;;;;;;5.93;5.43;;;;;;;30.71;39.52;101340.81;5092261;28;20444;-58
2022/06/27 10:41:39;;;;;;;6.57;5.40;;;;;;;30.64;39.37;101340.34;5106652;28;20432;-60
2022/06/27 10:44:31;;;;;;;5.90;5.20;;;;;;;30.75;39.06;101330.09;5084209;28;20397;-58
2022/06/27 10:46:58;;;;;;;6.20;5.35;;;;;;;30.82;38.95;101334.09;5092494;28;20409;-58
2022/06/27 10:49:31;;;;;;;5.10;4.60;;;;;;;30.76;37.94;101338.00;5092005;28;20519;-57
2022/06/27 10:52:33;;;;;;;5.80;4.43;;;;;;;30.96;36.56;101328.78;5092101;28;20412;-57
2022/06/27 10:55:01;;;;;;;7.43;4.70;;;;;;;31.13;37.20;101324.72;5094225;28;20418;-59
2022/06/27 10:57:46;;;;;;;5.07;4.57;;;;;;;30.91;38.18;101326.06;5112389;28;20502;-58
2022/06/27 11:00:40;;;;;;;4.97;4.43;;;;;;;31.15;37.10;101325.25;5093469;28;20925;-58
2022/06/27 11:03:08;;;;;;;5.70;5.10;;;;;;;30.96;38.08;101328.78;5092639;28;20492;-59
2022/06/27 11:05:59;;;;;;;5.38;4.85;;;;;;;30.83;37.97;101327.53;5106313;28;20441;-57
2022/06/27 11:08:26;;;;;;;6.32;5.10;;;;;;;30.76;38.66;101323.53;5091718;28;20786;-58
2022/06/27 11:10:54;;;;;;;5.90;5.30;;;;;;;30.76;38.50;101335.28;5111830;28;20472;-59
2022/06/27 11:13:42;;;;;;;6.25;5.40;;;;;;;30.80;38.79;101319.09;5112456;28;20498;-58
2022/06/27 11:16:15;;;;;;;5.43;4.93;;;;;;;31.00;38.17;101321.59;5098568;28;20413;-57
2022/06/27 11:18:43;;;;;;;5.75;5.22;;;;;;;31.03;37.58;101321.00;5097971;28;20979;-58
2022/06/27 11:21:11;;;;;;;5.95;5.30;;;;;;;30.94;37.19;101325.53;5091447;28;20425;-58
2022/06/27 11:23:55;;;;;;;5.28;4.88;;;;;;;31.05;37.43;101318.00;5104460;28;20408;-58
2022/06/27 11:26:24;;;;;;;6.60;4.97;;;;;;;31.14;37.18;101313.47;5104640;28;20471;-58
2022/06/27 11:34:24;;;;;;;7.03;5.07;;;;;;;30.99;37.68;101314.50;5111613;28;20403;-58
2022/06/27 11:36:51;;;;;;;6.70;5.00;;;;;;;31.16;36.76;101316.75;5099259;28;20862;-57
2022/06/27 11:39:23;;;;;;;5.70;5.10;;;;;;;31.14;36.78;101308.00;5106463;28;20452;-58
2022/06/27 11:41:56;;;;;;;5.10;4.68;;;;;;;31.07;36.61;101307.56;5107033;28;20435;-58
2022/06/27 11:44:23;;;;;;;5.40;4.90;;;;;;;31.15;36.69;101298.69;5101331;28;20411;-57